Time;durP1;ratioP1;P1;durP2;ratioP2;P2;SDS_P1;SDS_P2;PMS_P1;PMS_P2;Temp;Humidity;BMP_temperature;BMP_pressure;BME280_temperature;BME280_humidity;BME280_pressure;Samples;Min_cycle;Max_cycle;Signal;HPM_P1;HPM_P2
2024/04/01 00:02:05;;;;;;;16.55;2.80;;;13.00;99.90;;;;;;5036040;28;20154;-78
2024/04/01 00:04:32;;;;;;;10.77;2.33;;;13.00;99.90;;;;;;5036016;28;20064;-78
2024/04/01 00:06:58;;;;;;;13.27;2.13;;;13.00;99.90;;;;;;5035349;28;20100;-79
2024/04/01 00:09:25;;;;;;;9.35;1.70;;;13.00;99.90;;;;;;5036727;28;20041;-79
2024/04/01 00:11:51;;;;;;;13.20;2.08;;;12.90;99.90;;;;;;5036697;28;20057;-79
2024/04/01 00:14:19;;;;;;;7.70;1.73;;;12.90;99.90;;;;;;5036890;28;20573;-79
2024/04/01 00:16:45;;;;;;;11.55;1.80;;;12.90;99.90;;;;;;5036432;28;20053;-79
2024/04/01 00:19:11;;;;;;;12.32;2.00;;;12.90;99.90;;;;;;5034830;28;20056;-78
2024/04/01 00:21:37;;;;;;;12.30;2.15;;;12.80;99.90;;;;;;5035008;28;20064;-78
2024/04/01 00:24:05;;;;;;;16.08;2.35;;;12.80;99.90;;;;;;5034678;28;20037;-80
2024/04/01 00:26:31;;;;;;;13.05;1.83;;;12.80;99.90;;;;;;5034226;28;20506;-78
2024/04/01 00:28:57;;;;;;;13.68;2.45;;;12.70;99.90;;;;;;5037942;28;20036;-79
2024/04/01 00:31:29;;;;;;;11.95;2.17;;;12.70;99.90;;;;;;5055341;28;20060;-79
2024/04/01 00:33:56;;;;;;;6.53;1.60;;;12.70;99.90;;;;;;5054699;28;20103;-79
2024/04/01 00:36:22;;;;;;;10.75;2.45;;;12.70;99.90;;;;;;5055626;28;20060;-79
2024/04/01 00:38:50;;;;;;;17.15;3.45;;;12.70;99.90;;;;;;5059464;28;20049;-79
2024/04/01 00:41:16;;;;;;;12.57;2.60;;;12.70;99.90;;;;;;5059837;28;20148;-79
2024/04/01 00:43:43;;;;;;;9.48;1.90;;;12.70;99.90;;;;;;5072983;28;20256;-80
2024/04/01 00:46:08;;;;;;;9.05;2.15;;;12.60;99.90;;;;;;5079058;28;20059;-79
2024/04/01 00:48:37;;;;;;;10.10;3.33;;;12.60;99.90;;;;;;5079623;28;20045;-79
2024/04/01 00:51:05;;;;;;;14.00;1.85;;;12.60;99.90;;;;;;5078617;28;20051;-79
2024/04/01 00:53:32;;;;;;;8.10;1.92;;;12.60;99.90;;;;;;5078853;28;20045;-79
2024/04/01 00:55:59;;;;;;;14.05;2.35;;;12.60;99.90;;;;;;5063543;28;20055;-79
2024/04/01 00:58:26;;;;;;;7.07;1.50;;;12.60;99.90;;;;;;5055623;28;20056;-78
2024/04/01 01:00:52;;;;;;;8.57;1.83;;;12.60;99.90;;;;;;5055560;28;20049;-79
2024/04/01 01:03:19;;;;;;;16.00;1.90;;;12.50;99.90;;;;;;5055524;28;20051;-78
2024/04/01 01:05:47;;;;;;;8.20;2.50;;;12.50;99.90;;;;;;5055575;28;20414;-78
2024/04/01 01:08:14;;;;;;;15.13;1.90;;;12.50;99.90;;;;;;5055806;28;20057;-78
2024/04/01 01:10:41;;;;;;;10.40;1.95;;;12.50;99.90;;;;;;5055754;28;20056;-78
2024/04/01 01:13:08;;;;;;;16.80;2.03;;;12.50;99.90;;;;;;5055714;28;20040;-78
2024/04/01 01:15:34;;;;;;;11.52;2.33;;;12.50;99.90;;;;;;5055272;28;20041;-79
2024/04/01 01:18:01;;;;;;;11.45;1.85;;;12.40;99.90;;;;;;5055420;28;20094;-78
2024/04/01 01:20:26;;;;;;;10.85;2.03;;;12.40;99.90;;;;;;5055121;28;20049;-78
2024/04/01 01:22:56;;;;;;;8.57;1.77;;;12.30;99.90;;;;;;5055991;28;20068;-78
2024/04/01 01:25:22;;;;;;;12.10;2.17;;;12.30;99.90;;;;;;5055829;28;20044;-79
2024/04/01 01:27:49;;;;;;;15.18;1.70;;;12.30;99.90;;;;;;5057202;28;20381;-78
2024/04/01 01:30:15;;;;;;;11.02;2.63;;;12.40;99.90;;;;;;5043204;28;20057;-78
2024/04/01 01:32:45;;;;;;;9.38;2.10;;;12.40;99.90;;;;;;5035758;28;20489;-78
2024/04/01 01:35:13;;;;;;;11.52;2.08;;;12.40;99.90;;;;;;5036299;28;20095;-79
2024/04/01 01:37:40;;;;;;;8.77;1.55;;;12.30;99.90;;;;;;5035964;28;20060;-78
2024/04/01 01:40:08;;;;;;;10.95;2.25;;;12.30;99.90;;;;;;5036146;28;20049;-78
2024/04/01 01:42:35;;;;;;;11.27;2.38;;;12.30;99.90;;;;;;5036533;28;20050;-79
2024/04/01 01:45:02;;;;;;;13.02;2.60;;;12.30;99.90;;;;;;5036193;28;20053;-78
2024/04/01 01:47:31;;;;;;;11.38;2.58;;;12.30;99.90;;;;;;5036443;28;20046;-78
2024/04/01 01:49:57;;;;;;;20.67;4.07;;;12.20;99.90;;;;;;5036015;28;20076;-78
2024/04/01 01:52:24;;;;;;;12.75;2.30;;;12.10;99.90;;;;;;5036728;28;20117;-78
2024/04/01 01:54:50;;;;;;;13.85;2.25;;;12.10;99.90;;;;;;5036864;28;20053;-78
2024/04/01 01:57:18;;;;;;;7.30;1.80;;;12.10;99.90;;;;;;5038032;28;20056;-78
2024/04/01 01:59:46;;;;;;;12.57;2.00;;;12.10;99.90;;;;;;5041785;28;20064;-78
2024/04/01 02:02:12;;;;;;;9.98;2.00;;;12.00;99.90;;;;;;5050451;28;20045;-79
2024/04/01 02:04:39;;;;;;;13.00;1.85;;;11.90;99.90;;;;;;5050358;28;20063;-78
2024/04/01 02:07:06;;;;;;;6.78;1.45;;;11.90;99.90;;;;;;5049620;28;20517;-80
2024/04/01 02:09:33;;;;;;;10.13;2.30;;;11.90;99.90;;;;;;5050785;28;20052;-78
2024/04/01 02:12:00;;;;;;;12.63;1.63;;;11.80;99.90;;;;;;5050661;28;20053;-78
2024/04/01 02:14:28;;;;;;;8.57;1.83;;;11.80;99.90;;;;;;5055165;28;20076;-78
2024/04/01 02:16:55;;;;;;;6.93;1.88;;;11.80;99.90;;;;;;5056082;28;20124;-78
2024/04/01 02:19:20;;;;;;;11.18;2.38;;;11.80;99.90;;;;;;5057101;28;20109;-79
2024/04/01 02:21:47;;;;;;;10.18;2.72;;;11.80;99.90;;;;;;5055785;28;20045;-79
2024/04/01 02:24:17;;;;;;;12.05;1.95;;;11.80;99.90;;;;;;5055633;28;20109;-80
2024/04/01 02:26:44;;;;;;;14.95;2.03;;;11.80;99.90;;;;;;5054764;28;20045;-79
2024/04/01 02:29:10;;;;;;;10.07;2.30;;;11.80;99.90;;;;;;5057594;28;20113;-79
2024/04/01 02:31:39;;;;;;;8.68;1.60;;;11.80;99.90;;;;;;5077160;28;20033;-79
2024/04/01 02:34:05;;;;;;;14.48;1.88;;;11.80;99.90;;;;;;5077244;28;20089;-79
2024/04/01 02:36:32;;;;;;;9.85;2.47;;;11.70;99.90;;;;;;5077657;28;20040;-78
2024/04/01 02:38:58;;;;;;;12.68;1.98;;;11.60;99.90;;;;;;5076696;28;20096;-79
2024/04/01 02:41:25;;;;;;;10.00;2.08;;;11.50;99.90;;;;;;5077132;28;20040;-78
2024/04/01 02:43:50;;;;;;;9.05;1.90;;;11.60;99.90;;;;;;5076646;28;20073;-79
2024/04/01 02:46:17;;;;;;;13.70;1.75;;;11.50;99.90;;;;;;5060535;28;20124;-78
2024/04/01 02:48:45;;;;;;;8.60;1.67;;;11.60;99.90;;;;;;5059951;28;20049;-79
2024/04/01 02:51:12;;;;;;;8.10;1.95;;;11.50;99.90;;;;;;5062472;28;20147;-79
2024/04/01 02:53:38;;;;;;;10.85;1.70;;;11.50;99.90;;;;;;5056516;28;20136;-79
2024/04/01 02:56:06;;;;;;;8.80;2.10;;;11.60;99.90;;;;;;5071554;28;20033;-79
2024/04/01 02:58:32;;;;;;;7.35;1.50;;;11.50;99.90;;;;;;5077196;28;20025;-79
2024/04/01 03:01:07;;;;;;;5.93;1.33;;;11.60;99.90;;;;;;5076712;28;20057;-79
2024/04/01 03:03:33;;;;;;;10.40;2.00;;;11.60;99.90;;;;;;5077564;28;20036;-79
2024/04/01 03:06:01;;;;;;;6.38;1.80;;;11.60;99.90;;;;;;5077012;28;20029;-78
2024/04/01 03:08:27;;;;;;;13.73;2.28;;;11.50;99.90;;;;;;5077307;28;20033;-78
2024/04/01 03:10:59;;;;;;;7.47;1.40;;;11.50;99.90;;;;;;5077474;28;20055;-78
2024/04/01 03:13:26;;;;;;;8.07;1.92;;;11.50;99.90;;;;;;5076690;28;20044;-78
2024/04/01 03:15:53;;;;;;;7.85;1.65;;;11.50;99.90;;;;;;5076117;28;20060;-78
2024/04/01 03:18:19;;;;;;;16.52;1.98;;;11.50;99.90;;;;;;5057450;28;20110;-78
2024/04/01 03:20:46;;;;;;;13.30;2.03;;;11.50;99.90;;;;;;5053069;28;20132;-79
2024/04/01 03:23:13;;;;;;;7.80;1.90;;;11.50;99.90;;;;;;5052789;28;20049;-77
2024/04/01 03:25:40;;;;;;;11.27;2.25;;;11.50;99.90;;;;;;5053431;28;20053;-79
2024/04/01 03:28:06;;;;;;;13.80;2.20;;;11.50;99.90;;;;;;5053267;28;20045;-79
2024/04/01 03:30:34;;;;;;;12.15;1.75;;;11.50;99.90;;;;;;5036619;28;20056;-77
2024/04/01 03:33:00;;;;;;;13.73;1.90;;;11.40;99.90;;;;;;5033234;28;20059;-78
2024/04/01 03:35:26;;;;;;;17.13;2.00;;;11.50;99.90;;;;;;5033118;28;20053;-78
2024/04/01 03:37:53;;;;;;;9.23;2.53;;;11.40;99.90;;;;;;5033432;28;20053;-78
2024/04/01 03:40:22;;;;;;;9.25;1.52;;;11.40;99.90;;;;;;5033357;28;20045;-80
2024/04/01 03:42:49;;;;;;;7.75;2.08;;;11.40;99.90;;;;;;5033529;28;20059;-79
2024/04/01 03:45:14;;;;;;;7.80;1.80;;;11.40;99.90;;;;;;5033171;28;20055;-79
2024/04/01 03:47:41;;;;;;;9.35;1.70;;;11.40;99.90;;;;;;5033218;28;20049;-78
2024/04/01 03:50:11;;;;;;;6.35;1.48;;;11.40;99.90;;;;;;5032651;28;20056;-79
2024/04/01 03:52:38;;;;;;;10.02;1.42;;;11.40;99.90;;;;;;5032692;28;20051;-80
2024/04/01 03:55:05;;;;;;;8.77;2.15;;;11.40;99.90;;;;;;5032670;28;20460;-78
2024/04/01 03:57:34;;;;;;;8.32;1.75;;;11.40;99.90;;;;;;5033369;28;20060;-78
2024/04/01 03:59:59;;;;;;;9.07;1.90;;;11.40;99.90;;;;;;5033857;28;20058;-79
2024/04/01 04:02:27;;;;;;;7.60;1.90;;;11.40;99.90;;;;;;5032960;28;20124;-79
2024/04/01 04:04:53;;;;;;;5.95;1.80;;;11.40;99.90;;;;;;5032734;28;20054;-79
2024/04/01 04:07:20;;;;;;;7.30;2.22;;;11.40;99.90;;;;;;5032723;28;20422;-79
2024/04/01 04:09:46;;;;;;;10.18;1.75;;;11.30;99.90;;;;;;5032685;28;20054;-78
2024/04/01 04:12:13;;;;;;;10.25;1.48;;;11.40;99.90;;;;;;5035807;28;20059;-80
2024/04/01 04:14:40;;;;;;;7.85;1.58;;;11.30;99.90;;;;;;5035994;28;20053;-79
2024/04/01 04:17:08;;;;;;;12.38;2.40;;;11.30;99.90;;;;;;5036703;28;20128;-78
2024/04/01 04:19:33;;;;;;;4.60;1.98;;;11.30;99.90;;;;;;5036920;28;20058;-79
2024/04/01 04:22:00;;;;;;;12.00;1.80;;;11.30;99.90;;;;;;5037085;28;20057;-78
2024/04/01 04:24:26;;;;;;;14.25;2.92;;;11.30;99.90;;;;;;5037960;28;20061;-79
2024/04/01 04:26:53;;;;;;;9.40;1.90;;;11.30;99.90;;;;;;5036703;28;20053;-79
2024/04/01 04:29:19;;;;;;;10.43;2.03;;;11.30;99.90;;;;;;5036321;28;20056;-78
2024/04/01 04:31:55;;;;;;;6.10;1.67;;;11.30;99.90;;;;;;5036428;28;20045;-78
2024/04/01 04:34:21;;;;;;;6.78;1.75;;;11.30;99.90;;;;;;5037031;28;20041;-78
2024/04/01 04:36:48;;;;;;;13.07;1.95;;;11.30;99.90;;;;;;5036859;28;20049;-78
2024/04/01 04:39:19;;;;;;;13.95;2.03;;;11.30;99.90;;;;;;5036727;28;20053;-78
2024/04/01 04:41:47;;;;;;;3.90;1.63;;;11.30;99.90;;;;;;5036184;28;20144;-78
2024/04/01 04:44:13;;;;;;;6.88;1.45;;;11.20;99.90;;;;;;5036702;28;20053;-79
2024/04/01 04:46:40;;;;;;;8.55;1.80;;;11.20;99.90;;;;;;5040760;28;20103;-80
2024/04/01 04:49:07;;;;;;;6.45;1.65;;;11.20;99.90;;;;;;5038989;28;20057;-80
2024/04/01 04:51:34;;;;;;;11.85;2.00;;;11.20;99.90;;;;;;5037826;28;20050;-80
2024/04/01 04:54:00;;;;;;;7.53;1.70;;;11.20;99.90;;;;;;5043036;28;20058;-79
2024/04/01 04:56:27;;;;;;;6.75;1.50;;;11.20;99.90;;;;;;5054996;28;20053;-79
2024/04/01 04:58:53;;;;;;;11.48;1.63;;;11.30;99.90;;;;;;5054642;28;20073;-79
2024/04/01 05:01:20;;;;;;;8.27;1.98;;;11.20;99.90;;;;;;5053495;28;20053;-79
2024/04/01 05:03:46;;;;;;;6.07;1.95;;;11.10;99.90;;;;;;5037365;28;20064;-79
2024/04/01 05:06:18;;;;;;;6.30;1.63;;;11.10;99.90;;;;;;5036908;28;20046;-80
2024/04/01 05:08:45;;;;;;;6.43;1.63;;;11.10;99.90;;;;;;5037656;28;20391;-80
2024/04/01 05:11:12;;;;;;;5.45;1.90;;;11.10;99.90;;;;;;5036806;28;20461;-80
2024/04/01 05:13:38;;;;;;;6.00;2.05;;;11.10;99.90;;;;;;5037123;28;20051;-79
2024/04/01 05:16:06;;;;;;;4.82;2.30;;;11.10;99.90;;;;;;5036609;28;20038;-79
2024/04/01 05:18:34;;;;;;;9.65;2.20;;;11.00;99.90;;;;;;5036971;28;20128;-79
2024/04/01 05:21:01;;;;;;;10.02;2.20;;;11.00;99.90;;;;;;5036056;28;20045;-78
2024/04/01 05:23:28;;;;;;;6.72;2.15;;;11.00;99.90;;;;;;5035421;28;20565;-78
2024/04/01 05:25:56;;;;;;;8.10;2.40;;;11.00;99.90;;;;;;5035925;28;20437;-78
2024/04/01 05:28:22;;;;;;;5.38;2.30;;;11.10;99.90;;;;;;5036707;28;20073;-78
2024/04/01 05:30:53;;;;;;;8.68;2.28;;;11.10;99.90;;;;;;5054814;28;20060;-79
2024/04/01 05:33:19;;;;;;;8.15;3.22;;;11.10;99.90;;;;;;5056718;28;20056;-78
2024/04/01 05:35:46;;;;;;;5.53;2.38;;;11.10;99.90;;;;;;5056134;28;20051;-79
2024/04/01 05:38:12;;;;;;;8.75;2.58;;;11.10;99.90;;;;;;5057669;28;20057;-79
2024/04/01 05:40:41;;;;;;;8.98;3.03;;;11.10;99.90;;;;;;5057180;28;20132;-78
2024/04/01 05:43:07;;;;;;;4.45;2.15;;;11.10;99.90;;;;;;5056993;28;20057;-78
2024/04/01 05:45:34;;;;;;;7.03;3.05;;;11.10;99.90;;;;;;5056990;28;20112;-80
2024/04/01 05:48:00;;;;;;;5.80;2.55;;;11.10;99.90;;;;;;5056419;28;20057;-80
2024/04/01 05:50:28;;;;;;;5.03;2.97;;;11.10;99.90;;;;;;5056190;28;20053;-80
2024/04/01 05:52:53;;;;;;;8.13;3.05;;;11.10;99.90;;;;;;5055836;28;20071;-78
2024/04/01 05:55:20;;;;;;;5.38;3.15;;;11.10;99.90;;;;;;5056215;28;20483;-78
2024/04/01 05:57:48;;;;;;;9.05;3.25;;;11.10;99.90;;;;;;5056070;28;20055;-80
2024/04/01 06:00:15;;;;;;;5.22;3.20;;;11.00;99.90;;;;;;5056484;28;20060;-80
2024/04/01 06:02:41;;;;;;;7.10;3.75;;;11.10;99.90;;;;;;5056981;28;20055;-79
2024/04/01 06:05:09;;;;;;;4.32;3.10;;;11.00;99.90;;;;;;5056779;28;20124;-80
2024/04/01 06:07:35;;;;;;;6.97;3.08;;;11.00;99.90;;;;;;5057125;28;20053;-79
2024/04/01 06:10:02;;;;;;;6.15;3.13;;;11.00;99.90;;;;;;5057779;28;20485;-80
2024/04/01 06:12:28;;;;;;;6.32;3.22;;;11.00;99.90;;;;;;5057010;28;20052;-80
2024/04/01 06:14:56;;;;;;;6.65;3.40;;;11.00;99.90;;;;;;5056946;28;20140;-79
2024/04/01 06:17:22;;;;;;;9.50;3.40;;;11.00;99.90;;;;;;5057074;28;20061;-78
2024/04/01 06:19:49;;;;;;;5.50;3.20;;;11.10;99.90;;;;;;5057699;28;20135;-79
2024/04/01 06:22:14;;;;;;;9.65;3.38;;;11.00;99.90;;;;;;5058761;28;20057;-80
2024/04/01 06:24:41;;;;;;;4.65;2.90;;;11.00;99.90;;;;;;5057623;28;20063;-80
2024/04/01 06:27:07;;;;;;;6.22;3.05;;;11.00;99.90;;;;;;5066069;28;20029;-80
2024/04/01 06:29:35;;;;;;;5.18;3.05;;;11.10;99.90;;;;;;5069505;28;20040;-79
2024/04/01 06:32:03;;;;;;;6.93;2.83;;;11.00;99.90;;;;;;5057790;28;20048;-78
2024/04/01 06:34:29;;;;;;;4.35;2.55;;;11.00;99.90;;;;;;5057517;28;20049;-79
2024/04/01 06:36:55;;;;;;;7.93;2.55;;;11.20;99.90;;;;;;5057654;28;20097;-79
2024/04/01 06:39:22;;;;;;;3.88;2.20;;;11.10;99.90;;;;;;5050592;28;20056;-78
2024/04/01 06:41:48;;;;;;;8.60;2.55;;;11.10;99.90;;;;;;5033782;28;20053;-79
2024/04/01 06:44:16;;;;;;;3.95;2.00;;;11.10;99.90;;;;;;5034442;28;20048;-80
2024/04/01 06:46:41;;;;;;;9.02;2.30;;;11.10;99.90;;;;;;5034270;28;20123;-79
2024/04/01 06:49:10;;;;;;;5.28;1.88;;;11.10;99.90;;;;;;5034552;28;20482;-79
2024/04/01 06:51:37;;;;;;;7.45;2.42;;;11.10;99.90;;;;;;5035101;28;20135;-78
2024/04/01 06:54:02;;;;;;;3.92;1.90;;;11.10;99.90;;;;;;5034862;28;20053;-78
2024/04/01 06:56:30;;;;;;;4.07;2.05;;;11.10;99.90;;;;;;5035040;28;20101;-79
2024/04/01 06:58:56;;;;;;;2.47;1.60;;;10.90;99.90;;;;;;5034525;28;20109;-78
2024/04/01 07:01:23;;;;;;;1.75;1.40;;;11.00;99.90;;;;;;5034407;28;20506;-80
2024/04/01 07:03:48;;;;;;;4.28;1.45;;;11.00;99.90;;;;;;5035140;28;20055;-79
2024/04/01 07:06:18;;;;;;;2.85;1.50;;;11.10;99.90;;;;;;5035539;28;20049;-79
2024/04/01 07:08:44;;;;;;;4.13;1.73;;;11.10;99.90;;;;;;5034198;28;20056;-78
2024/04/01 07:11:10;;;;;;;6.22;2.00;;;11.10;99.90;;;;;;5036663;28;20060;-78
2024/04/01 07:13:36;;;;;;;5.85;1.98;;;11.00;99.90;;;;;;5036367;28;20060;-79
2024/04/01 07:16:03;;;;;;;8.90;2.05;;;11.00;99.90;;;;;;5035857;28;20132;-79
2024/04/01 07:18:30;;;;;;;5.20;1.40;;;11.10;99.90;;;;;;5036516;28;20057;-80
2024/04/01 07:20:57;;;;;;;3.55;1.58;;;11.00;99.90;;;;;;5036028;28;20045;-79
2024/04/01 07:23:24;;;;;;;5.15;1.50;;;11.10;99.90;;;;;;5037620;28;20287;-80
2024/04/01 07:25:51;;;;;;;3.22;0.88;;;11.10;99.90;;;;;;5036111;28;20067;-78
2024/04/01 07:28:17;;;;;;;2.13;0.70;;;11.10;99.90;;;;;;5034328;28;20060;-78
2024/04/01 07:30:44;;;;;;;5.28;0.90;;;11.10;99.90;;;;;;5052261;28;20045;-80
2024/04/01 07:33:10;;;;;;;3.03;0.60;;;11.10;99.90;;;;;;5054225;28;20052;-79
2024/04/01 07:35:38;;;;;;;1.98;0.60;;;11.10;99.90;;;;;;5052834;28;20095;-78
2024/04/01 07:38:04;;;;;;;3.70;0.80;;;11.00;99.90;;;;;;5053651;28;20415;-78
2024/04/01 07:40:33;;;;;;;3.15;0.45;;;11.00;99.90;;;;;;5053717;28;20417;-79
2024/04/01 07:42:59;;;;;;;0.95;0.43;;;11.00;99.90;;;;;;5054994;28;20057;-80
2024/04/01 07:45:25;;;;;;;1.58;0.60;;;11.00;99.90;;;;;;5054257;28;20112;-79
2024/04/01 07:47:51;;;;;;;1.23;0.73;;;11.00;99.90;;;;;;5057570;28;20055;-78
2024/04/01 07:50:19;;;;;;;5.18;0.68;;;11.00;99.90;;;;;;5057984;28;20049;-79
2024/04/01 07:52:44;;;;;;;4.97;1.13;;;11.10;99.90;;;;;;5057476;28;20052;-78
2024/04/01 07:55:11;;;;;;;1.10;0.50;;;11.00;99.90;;;;;;5057503;28;20052;-79
2024/04/01 07:57:38;;;;;;;1.30;0.43;;;11.10;99.90;;;;;;5057248;28;20049;-79
2024/04/01 08:00:08;;;;;;;1.85;0.60;;;11.10;99.90;;;;;;5057451;28;20099;-79
2024/04/01 08:02:34;;;;;;;4.63;0.88;;;11.20;99.90;;;;;;5058441;28;20060;-80
2024/04/01 08:05:00;;;;;;;1.15;0.68;;;11.20;99.90;;;;;;5058322;28;20132;-79
2024/04/01 08:07:26;;;;;;;2.20;0.70;;;11.20;99.90;;;;;;5057475;28;20057;-79
2024/04/01 08:09:53;;;;;;;3.03;0.90;;;11.20;99.90;;;;;;5057770;28;20055;-80
2024/04/01 08:12:19;;;;;;;2.60;0.60;;;11.20;99.90;;;;;;5057583;28;20049;-80
2024/04/01 08:14:49;;;;;;;1.80;0.75;;;11.20;99.90;;;;;;5057357;28;20055;-79
2024/04/01 08:17:15;;;;;;;0.63;0.38;;;11.20;99.90;;;;;;5055985;28;20409;-79
2024/04/01 08:19:47;;;;;;;0.50;0.20;;;11.20;99.90;;;;;;5056898;28;20063;-79
2024/04/01 08:22:13;;;;;;;0.52;0.25;;;11.20;99.90;;;;;;5057716;28;20064;-80
2024/04/01 08:24:40;;;;;;;0.10;0.05;;;11.20;99.90;;;;;;5058332;28;20052;-79
2024/04/01 08:27:06;;;;;;;0.20;0.20;;;11.20;99.90;;;;;;5057046;28;20057;-78
2024/04/01 08:29:33;;;;;;;1.50;0.40;;;11.30;99.90;;;;;;5049815;28;20381;-78
2024/04/01 08:32:01;;;;;;;2.63;0.47;;;11.30;99.90;;;;;;5038048;28;20433;-79
2024/04/01 08:34:28;;;;;;;2.28;0.40;;;11.40;99.90;;;;;;5037428;28;20088;-78
2024/04/01 08:36:54;;;;;;;5.13;0.60;;;11.50;99.90;;;;;;5035934;28;20123;-78
2024/04/01 08:39:21;;;;;;;2.92;0.43;;;11.50;99.90;;;;;;5037300;28;20645;-79
2024/04/01 08:41:51;;;;;;;0.90;0.32;;;11.50;99.90;;;;;;5036688;28;20049;-79
2024/04/01 08:44:18;;;;;;;0.90;0.30;;;11.50;99.90;;;;;;5037991;28;20072;-78
2024/04/01 08:46:46;;;;;;;0.93;0.40;;;11.60;99.90;;;;;;5037290;28;20053;-78
2024/04/01 08:49:15;;;;;;;0.77;0.57;;;11.70;99.90;;;;;;5037494;28;20502;-79
2024/04/01 08:51:42;;;;;;;2.35;0.90;;;11.70;99.90;;;;;;5038445;28;20057;-78
2024/04/01 08:54:11;;;;;;;1.45;0.70;;;11.80;99.90;;;;;;5037814;28;20041;-80
2024/04/01 08:56:38;;;;;;;3.72;0.68;;;11.80;99.90;;;;;;5037252;28;20057;-79
2024/04/01 08:59:06;;;;;;;2.45;0.50;;;11.80;99.90;;;;;;5037519;28;20477;-79
2024/04/01 09:01:32;;;;;;;1.85;0.40;;;11.90;99.90;;;;;;5037838;28;20140;-79
2024/04/01 09:04:01;;;;;;;2.33;0.30;;;11.90;99.90;;;;;;5037440;28;20133;-79
2024/04/01 09:06:29;;;;;;;0.75;0.40;;;11.90;99.90;;;;;;5037803;28;20057;-79
2024/04/01 09:08:57;;;;;;;3.58;0.30;;;12.00;99.90;;;;;;5039628;28;20060;-80
2024/04/01 09:11:24;;;;;;;1.65;0.28;;;12.10;99.90;;;;;;5037862;28;20059;-79
2024/04/01 09:13:52;;;;;;;1.67;0.22;;;12.10;99.90;;;;;;5037909;28;20486;-80
2024/04/01 09:16:21;;;;;;;0.57;0.13;;;12.20;99.90;;;;;;5038023;28;20045;-79
2024/04/01 09:18:49;;;;;;;0.20;0.20;;;12.30;99.90;;;;;;5037007;28;20132;-78
2024/04/01 09:21:17;;;;;;;0.50;0.17;;;12.40;99.90;;;;;;5036528;28;20049;-79
2024/04/01 09:23:46;;;;;;;1.40;0.35;;;12.40;99.90;;;;;;5035969;28;20061;-80
2024/04/01 09:26:12;;;;;;;0.13;0.10;;;12.50;99.90;;;;;;5036216;28;20042;-78
2024/04/01 09:28:39;;;;;;;0.93;0.30;;;12.70;99.90;;;;;;5036347;28;20156;-79
2024/04/01 09:31:07;;;;;;;5.80;2.47;;;12.90;99.90;;;;;;5056141;28;20052;-80
2024/04/01 09:33:35;;;;;;;0.57;0.32;;;13.00;99.90;;;;;;5056494;28;20045;-78
2024/04/01 09:36:02;;;;;;;0.70;0.20;;;13.10;99.90;;;;;;5055715;28;20041;-78
2024/04/01 09:38:29;;;;;;;0.20;0.10;;;13.30;99.90;;;;;;5057323;28;20049;-79
2024/04/01 09:40:58;;;;;;;0.30;0.30;;;13.40;99.90;;;;;;5058514;28;20137;-78
2024/04/01 09:43:28;;;;;;;0.40;0.32;;;13.50;99.90;;;;;;5058136;28;20080;-79
2024/04/01 09:45:54;;;;;;;0.40;0.40;;;13.70;99.90;;;;;;5056470;28;20103;-81
2024/04/01 09:48:25;;;;;;;0.30;0.28;;;13.70;99.90;;;;;;5056595;28;20148;-78
2024/04/01 09:50:53;;;;;;;0.10;0.10;;;13.60;99.90;;;;;;5058112;28;20383;-79
2024/04/01 09:53:20;;;;;;;0.40;0.40;;;13.40;99.90;;;;;;5059060;28;20055;-81
2024/04/01 09:56:12;;;;;;;1.20;0.20;;;13.30;99.90;;;;;;5059608;28;20133;-79
2024/04/01 09:59:22;;;;;;;1.85;1.00;;;13.30;99.90;;;;;;5055815;28;20049;-78
2024/04/01 10:02:07;;;;;;;0.20;0.20;;;13.40;99.90;;;;;;5057151;28;20052;-80
2024/04/01 10:04:59;;;;;;;0.50;0.25;;;13.40;99.90;;;;;;5057093;28;20069;-79
2024/04/01 10:07:59;;;;;;;0.20;0.20;;;13.30;99.90;;;;;;5056363;28;20044;-78
2024/04/01 10:10:53;;;;;;;0.60;0.13;;;13.40;99.90;;;;;;5056946;28;20131;-80
2024/04/01 10:14:09;;;;;;;0.03;0.03;;;13.50;99.90;;;;;;5057965;28;20071;-80
2024/04/01 10:17:06;;;;;;;0.10;0.10;;;13.60;99.90;;;;;;5064729;28;20102;-80
2024/04/01 10:19:54;;;;;;;0.13;0.10;;;13.70;99.90;;;;;;5059349;28;20136;-80
2024/04/01 10:22:38;;;;;;;0.10;0.10;;;13.60;99.90;;;;;;5058973;28;20052;-78
2024/04/01 10:25:39;;;;;;;0.52;0.10;;;13.60;99.90;;;;;;5057457;28;20520;-78
2024/04/01 10:28:51;;;;;;;1.42;0.10;;;13.60;99.90;;;;;;5057681;28;20057;-79
2024/04/01 10:32:03;;;;;;;0.13;0.10;;;13.70;99.90;;;;;;5036672;28;20045;-79
2024/04/01 10:34:56;;;;;;;0.38;0.15;;;13.50;99.90;;;;;;4975624;28;20071;-79
2024/04/01 10:37:43;;;;;;;0.20;0.20;;;13.30;99.90;;;;;;5035373;28;20506;-77
2024/04/01 10:40:22;;;;;;;0.10;0.10;;;13.30;99.90;;;;;;5037441;28;20059;-78
2024/04/01 10:43:49;;;;;;;0.20;0.20;;;13.20;99.90;;;;;;5035319;28;20052;-78
2024/04/01 10:46:53;;;;;;;0.20;0.10;;;13.20;99.90;;;;;;5038918;28;20132;-78
2024/04/01 10:49:55;;;;;;;0.20;0.20;;;13.20;99.90;;;;;;5040238;28;20056;-79
2024/04/01 10:52:52;;;;;;;2.05;0.30;;;13.20;99.90;;;;;;5038045;28;20049;-78
2024/04/01 10:55:52;;;;;;;1.17;1.02;;;13.10;99.90;;;;;;5035211;28;20561;-78
2024/04/01 10:58:54;;;;;;;0.08;0.08;;;13.00;99.90;;;;;;5042340;28;20041;-78
2024/04/01 11:01:48;;;;;;;0.03;0.03;;;13.00;99.90;;;;;;5052811;28;20045;-77
2024/04/01 11:04:44;;;;;;;0.00;0.00;;;13.10;99.90;;;;;;5053133;28;20061;-77
2024/04/01 11:07:27;;;;;;;0.43;0.10;;;13.20;99.90;;;;;;5040008;28;20084;-78
2024/04/01 11:10:08;;;;;;;0.10;0.10;;;13.20;99.90;;;;;;5036017;28;20105;-77
2024/04/01 11:12:42;;;;;;;0.98;0.00;;;13.20;99.90;;;;;;5035456;28;20068;-78
2024/04/01 11:15:08;;;;;;;0.13;0.13;;;13.20;99.90;;;;;;5035610;28;20058;-77
2024/04/01 11:17:36;;;;;;;0.20;0.10;;;13.30;99.90;;;;;;5035259;28;20099;-78
2024/04/01 11:20:23;;;;;;;0.82;0.17;;;13.40;99.90;;;;;;5034205;28;20395;-78
2024/04/01 11:23:18;;;;;;;0.00;0.00;;;13.40;99.90;;;;;;5034064;28;20049;-78
2024/04/01 11:25:59;;;;;;;0.10;0.10;;;13.40;99.90;;;;;;5023889;28;20103;-78
2024/04/01 11:28:41;;;;;;;0.00;0.00;;;13.30;99.90;;;;;;5034869;28;20159;-77
2024/04/01 11:31:13;;;;;;;0.75;0.52;;;13.50;99.90;;;;;;5037976;28;20057;-76
2024/04/01 11:33:54;;;;;;;0.10;0.10;;;13.60;99.90;;;;;;5035835;28;20386;-76
2024/04/01 11:36:27;;;;;;;0.00;0.00;;;13.60;99.90;;;;;;5035793;28;20053;-78
2024/04/01 11:39:03;;;;;;;0.10;0.10;;;13.70;99.90;;;;;;5035579;28;20395;-77
2024/04/01 11:41:31;;;;;;;0.10;0.10;;;13.90;99.90;;;;;;5035507;28;20482;-76
2024/04/01 11:43:58;;;;;;;0.45;0.20;;;14.00;99.90;;;;;;5035720;28;20041;-78
2024/04/01 11:46:25;;;;;;;0.30;0.10;;;14.00;99.90;;;;;;5034084;28;20052;-77
2024/04/01 11:48:54;;;;;;;0.13;0.10;;;14.10;99.90;;;;;;5035909;28;20052;-79
2024/04/01 11:51:30;;;;;;;0.10;0.10;;;14.00;99.90;;;;;;5035910;28;20133;-76
2024/04/01 11:53:58;;;;;;;0.20;0.10;;;13.70;99.90;;;;;;5035444;28;20469;-77
2024/04/01 11:56:38;;;;;;;1.05;0.20;;;13.40;99.90;;;;;;5036343;28;20048;-78
2024/04/01 11:59:07;;;;;;;0.32;0.10;;;13.10;99.90;;;;;;5036008;28;20399;-79
2024/04/01 12:01:34;;;;;;;0.10;0.10;;;13.10;99.90;;;;;;5037452;28;20049;-77
2024/04/01 12:04:01;;;;;;;0.10;0.00;;;13.30;99.90;;;;;;5036187;28;20512;-76
2024/04/01 12:06:29;;;;;;;0.10;0.10;;;13.50;99.90;;;;;;5036239;28;20053;-78
2024/04/01 12:08:59;;;;;;;0.03;0.03;;;13.70;99.90;;;;;;5037508;28;20049;-77
2024/04/01 12:11:28;;;;;;;0.60;0.10;;;13.80;99.90;;;;;;5038232;28;20067;-78
2024/04/01 12:13:56;;;;;;;5.00;0.15;;;14.00;99.90;;;;;;5040374;28;20049;-76
2024/04/01 12:16:22;;;;;;;0.40;0.15;;;14.00;99.90;;;;;;5049843;28;20037;-77
2024/04/01 12:18:50;;;;;;;0.20;0.20;;;14.10;99.90;;;;;;5056867;28;20072;-77
2024/04/01 12:21:18;;;;;;;0.95;0.10;;;14.20;99.90;;;;;;5056866;28;20030;-76
2024/04/01 12:23:48;;;;;;;1.85;0.10;;;14.30;99.90;;;;;;5056657;28;20046;-77
2024/04/01 12:26:16;;;;;;;0.65;0.13;;;14.40;99.90;;;;;;5056496;28;20033;-77
2024/04/01 12:28:44;;;;;;;0.03;0.03;;;14.70;99.90;;;;;;5045518;28;20359;-78
2024/04/01 12:31:11;;;;;;;0.17;0.17;;;14.90;99.90;;;;;;5053326;28;20441;-78
2024/04/01 12:33:39;;;;;;;1.10;0.20;;;15.00;99.90;;;;;;5056278;28;20048;-77
2024/04/01 12:36:06;;;;;;;0.05;0.05;;;15.10;99.90;;;;;;5057754;28;20068;-77
2024/04/01 12:38:34;;;;;;;0.10;0.10;;;15.10;99.90;;;;;;5057662;28;20056;-79
2024/04/01 12:41:01;;;;;;;1.20;0.10;;;15.00;99.90;;;;;;5057296;28;20488;-78
2024/04/01 12:43:30;;;;;;;0.00;0.00;;;14.80;99.90;;;;;;5057015;28;20059;-76
2024/04/01 12:45:58;;;;;;;0.15;0.10;;;14.80;99.90;;;;;;5056679;28;20505;-76
2024/04/01 12:48:27;;;;;;;0.65;0.20;;;14.90;99.90;;;;;;5056468;28;20080;-78
2024/04/01 12:50:55;;;;;;;0.43;0.22;;;15.00;99.90;;;;;;5056389;28;20056;-77
2024/04/01 12:53:41;;;;;;;0.20;0.20;;;15.10;99.90;;;;;;5055906;28;20406;-76
2024/04/01 12:56:17;;;;;;;0.10;0.10;;;15.20;99.90;;;;;;5056020;28;20049;-76
2024/04/01 12:58:56;;;;;;;0.52;0.50;;;15.20;99.90;;;;;;5056178;28;20060;-77
2024/04/01 13:01:32;;;;;;;1.13;0.22;;;15.10;99.90;;;;;;5056416;28;20052;-79